sensor_id;sensor_type;location;lat;lon;timestamp;P1;durP1;ratioP1;P2;durP2;ratioP2
795;SDS011;381;48.770;9.188;2023-05-23T00:02:17;28.73;;;25.87;;
795;SDS011;381;48.770;9.188;2023-05-23T00:07:21;33.30;;;25.90;;
795;SDS011;381;48.770;9.188;2023-05-23T00:12:23;36.90;;;29.17;;
795;SDS011;381;48.770;9.188;2023-05-23T00:17:25;32.63;;;27.27;;
795;SDS011;381;48.770;9.188;2023-05-23T00:22:28;44.07;;;33.60;;
795;SDS011;381;48.770;9.188;2023-05-23T00:27:30;25.67;;;22.30;;
795;SDS011;381;48.770;9.188;2023-05-23T00:32:32;44.07;;;32.23;;
795;SDS011;381;48.770;9.188;2023-05-23T00:37:37;38.50;;;32.60;;
795;SDS011;381;48.770;9.188;2023-05-23T00:42:39;44.17;;;34.40;;
795;SDS011;381;48.770;9.188;2023-05-23T00:47:42;42.80;;;33.60;;
795;SDS011;381;48.770;9.188;2023-05-23T00:52:46;42.57;;;33.87;;
795;SDS011;381;48.770;9.188;2023-05-23T00:57:50;44.97;;;36.77;;
795;SDS011;381;48.770;9.188;2023-05-23T01:02:54;45.10;;;36.50;;
795;SDS011;381;48.770;9.188;2023-05-23T01:07:58;44.80;;;36.37;;
795;SDS011;381;48.770;9.188;2023-05-23T01:13:05;51.93;;;36.70;;
795;SDS011;381;48.770;9.188;2023-05-23T01:18:17;42.77;;;34.37;;
795;SDS011;381;48.770;9.188;2023-05-23T01:23:34;54.10;;;39.47;;
795;SDS011;381;48.770;9.188;2023-05-23T01:28:57;57.80;;;43.33;;
795;SDS011;381;48.770;9.188;2023-05-23T01:34:09;48.60;;;39.07;;
795;SDS011;381;48.770;9.188;2023-05-23T01:39:16;46.23;;;37.87;;
795;SDS011;381;48.770;9.188;2023-05-23T01:44:21;53.93;;;41.70;;
795;SDS011;381;48.770;9.188;2023-05-23T01:49:23;57.00;;;44.57;;
795;SDS011;381;48.770;9.188;2023-05-23T01:54:27;57.73;;;45.50;;
795;SDS011;381;48.770;9.188;2023-05-23T01:59:31;64.27;;;46.60;;
795;SDS011;381;48.770;9.188;2023-05-23T02:04:34;53.30;;;42.07;;
795;SDS011;381;48.770;9.188;2023-05-23T02:09:36;58.63;;;46.63;;
795;SDS011;381;48.770;9.188;2023-05-23T02:14:40;60.67;;;47.37;;
795;SDS011;381;48.770;9.188;2023-05-23T02:19:43;66.97;;;48.50;;
795;SDS011;381;48.770;9.188;2023-05-23T02:24:46;61.03;;;47.40;;
795;SDS011;381;48.770;9.188;2023-05-23T02:29:51;68.67;;;50.10;;
795;SDS011;381;48.770;9.188;2023-05-23T02:34:53;74.63;;;56.17;;
795;SDS011;381;48.770;9.188;2023-05-23T02:39:55;76.40;;;54.27;;
795;SDS011;381;48.770;9.188;2023-05-23T02:44:59;72.33;;;54.00;;
795;SDS011;381;48.770;9.188;2023-05-23T02:50:01;65.50;;;51.17;;
795;SDS011;381;48.770;9.188;2023-05-23T02:55:05;71.30;;;51.90;;
795;SDS011;381;48.770;9.188;2023-05-23T03:00:15;67.67;;;54.10;;
795;SDS011;381;48.770;9.188;2023-05-23T03:05:22;63.47;;;50.40;;
795;SDS011;381;48.770;9.188;2023-05-23T03:10:25;58.80;;;47.87;;
795;SDS011;381;48.770;9.188;2023-05-23T03:15:28;65.37;;;50.83;;
795;SDS011;381;48.770;9.188;2023-05-23T03:20:31;60.57;;;49.83;;
795;SDS011;381;48.770;9.188;2023-05-23T03:25:33;62.90;;;51.57;;
795;SDS011;381;48.770;9.188;2023-05-23T03:30:36;57.33;;;47.80;;
795;SDS011;381;48.770;9.188;2023-05-23T03:35:38;52.47;;;46.33;;
795;SDS011;381;48.770;9.188;2023-05-23T03:40:41;61.07;;;47.47;;
795;SDS011;381;48.770;9.188;2023-05-23T03:45:44;57.20;;;44.33;;
795;SDS011;381;48.770;9.188;2023-05-23T04:39:06;46.60;;;41.60;;
795;SDS011;381;48.770;9.188;2023-05-23T04:44:15;47.27;;;42.17;;
795;SDS011;381;48.770;9.188;2023-05-23T04:49:23;51.60;;;43.10;;
795;SDS011;381;48.770;9.188;2023-05-23T04:54:28;44.17;;;39.50;;
795;SDS011;381;48.770;9.188;2023-05-23T04:59:32;47.00;;;41.83;;
795;SDS011;381;48.770;9.188;2023-05-23T05:04:39;47.80;;;40.60;;
795;SDS011;381;48.770;9.188;2023-05-23T05:09:44;44.10;;;39.50;;
795;SDS011;381;48.770;9.188;2023-05-23T05:14:50;45.63;;;40.70;;
795;SDS011;381;48.770;9.188;2023-05-23T05:19:53;44.90;;;40.33;;
795;SDS011;381;48.770;9.188;2023-05-23T05:24:58;43.40;;;37.83;;
795;SDS011;381;48.770;9.188;2023-05-23T05:30:08;46.60;;;41.27;;
795;SDS011;381;48.770;9.188;2023-05-23T05:35:25;46.13;;;41.40;;
795;SDS011;381;48.770;9.188;2023-05-23T05:40:28;42.43;;;38.23;;
795;SDS011;381;48.770;9.188;2023-05-23T05:45:31;43.80;;;39.23;;
795;SDS011;381;48.770;9.188;2023-05-23T05:50:34;44.83;;;38.93;;
795;SDS011;381;48.770;9.188;2023-05-23T05:55:37;44.40;;;39.87;;
795;SDS011;381;48.770;9.188;2023-05-23T06:00:40;44.27;;;39.57;;
795;SDS011;381;48.770;9.188;2023-05-23T06:05:43;45.17;;;40.50;;
795;SDS011;381;48.770;9.188;2023-05-23T06:10:46;43.80;;;39.10;;
795;SDS011;381;48.770;9.188;2023-05-23T06:15:49;45.93;;;41.33;;
795;SDS011;381;48.770;9.188;2023-05-23T06:20:51;44.87;;;40.17;;
795;SDS011;381;48.770;9.188;2023-05-23T06:25:57;43.53;;;39.13;;
795;SDS011;381;48.770;9.188;2023-05-23T06:30:59;48.13;;;43.20;;
795;SDS011;381;48.770;9.188;2023-05-23T06:36:01;44.77;;;40.30;;
795;SDS011;381;48.770;9.188;2023-05-23T06:41:14;45.30;;;40.77;;
795;SDS011;381;48.770;9.188;2023-05-23T06:46:21;46.93;;;41.97;;
795;SDS011;381;48.770;9.188;2023-05-23T06:51:23;45.90;;;41.17;;
795;SDS011;381;48.770;9.188;2023-05-23T06:56:28;43.93;;;39.53;;
795;SDS011;381;48.770;9.188;2023-05-23T07:01:32;43.80;;;39.37;;
795;SDS011;381;48.770;9.188;2023-05-23T07:06:35;40.80;;;36.93;;
795;SDS011;381;48.770;9.188;2023-05-23T07:11:41;41.90;;;37.47;;
795;SDS011;381;48.770;9.188;2023-05-23T07:16:44;41.73;;;37.53;;
795;SDS011;381;48.770;9.188;2023-05-23T07:21:46;39.57;;;35.53;;
795;SDS011;381;48.770;9.188;2023-05-23T07:26:52;40.90;;;36.90;;
795;SDS011;381;48.770;9.188;2023-05-23T07:31:55;37.00;;;33.20;;
795;SDS011;381;48.770;9.188;2023-05-23T07:36:58;31.13;;;28.13;;
795;SDS011;381;48.770;9.188;2023-05-23T07:42:06;32.43;;;29.17;;
795;SDS011;381;48.770;9.188;2023-05-23T07:47:09;33.00;;;29.27;;
795;SDS011;381;48.770;9.188;2023-05-23T07:52:11;34.23;;;31.07;;
795;SDS011;381;48.770;9.188;2023-05-23T07:57:15;38.47;;;34.80;;
795;SDS011;381;48.770;9.188;2023-05-23T08:02:18;37.83;;;34.10;;
795;SDS011;381;48.770;9.188;2023-05-23T08:07:21;33.80;;;30.70;;
795;SDS011;381;48.770;9.188;2023-05-23T08:12:30;28.57;;;25.87;;
795;SDS011;381;48.770;9.188;2023-05-23T08:17:47;27.57;;;24.97;;
795;SDS011;381;48.770;9.188;2023-05-23T08:22:51;27.60;;;24.90;;
795;SDS011;381;48.770;9.188;2023-05-23T08:27:59;26.77;;;24.17;;
795;SDS011;381;48.770;9.188;2023-05-23T08:33:17;26.90;;;24.40;;
795;SDS011;381;48.770;9.188;2023-05-23T08:38:22;25.90;;;23.40;;
795;SDS011;381;48.770;9.188;2023-05-23T08:43:45;24.00;;;21.80;;
795;SDS011;381;48.770;9.188;2023-05-23T08:48:53;25.70;;;23.20;;
795;SDS011;381;48.770;9.188;2023-05-23T08:53:58;23.93;;;21.93;;
795;SDS011;381;48.770;9.188;2023-05-23T08:59:04;24.10;;;21.80;;
795;SDS011;381;48.770;9.188;2023-05-23T09:04:06;24.17;;;21.97;;
795;SDS011;381;48.770;9.188;2023-05-23T09:09:29;23.97;;;21.77;;
795;SDS011;381;48.770;9.188;2023-05-23T09:14:34;25.10;;;22.60;;
795;SDS011;381;48.770;9.188;2023-05-23T09:19:41;24.80;;;22.47;;
795;SDS011;381;48.770;9.188;2023-05-23T09:24:54;22.83;;;20.73;;
795;SDS011;381;48.770;9.188;2023-05-23T09:29:58;21.00;;;19.00;;
795;SDS011;381;48.770;9.188;2023-05-23T09:35:07;22.23;;;20.13;;
795;SDS011;381;48.770;9.188;2023-05-23T09:40:12;20.80;;;18.80;;
795;SDS011;381;48.770;9.188;2023-05-23T09:45:29;19.40;;;17.50;;
795;SDS011;381;48.770;9.188;2023-05-23T09:50:34;18.47;;;16.87;;
795;SDS011;381;48.770;9.188;2023-05-23T09:55:37;19.77;;;17.97;;
795;SDS011;381;48.770;9.188;2023-05-23T10:00:41;19.97;;;18.13;;
795;SDS011;381;48.770;9.188;2023-05-23T10:05:45;17.40;;;15.80;;
795;SDS011;381;48.770;9.188;2023-05-23T10:11:01;16.40;;;15.00;;
795;SDS011;381;48.770;9.188;2023-05-23T10:16:36;16.10;;;14.67;;
795;SDS011;381;48.770;9.188;2023-05-23T10:21:47;15.10;;;13.77;;
795;SDS011;381;48.770;9.188;2023-05-23T10:26:51;14.77;;;13.57;;
795;SDS011;381;48.770;9.188;2023-05-23T10:31:56;15.90;;;14.40;;
795;SDS011;381;48.770;9.188;2023-05-23T10:36:59;13.47;;;12.20;;
795;SDS011;381;48.770;9.188;2023-05-23T10:42:07;12.60;;;11.60;;
795;SDS011;381;48.770;9.188;2023-05-23T10:47:14;11.50;;;10.50;;
795;SDS011;381;48.770;9.188;2023-05-23T10:52:26;12.17;;;11.17;;
795;SDS011;381;48.770;9.188;2023-05-23T10:57:40;13.30;;;12.20;;
795;SDS011;381;48.770;9.188;2023-05-23T11:02:48;12.73;;;11.50;;
795;SDS011;381;48.770;9.188;2023-05-23T11:08:07;12.67;;;11.50;;
795;SDS011;381;48.770;9.188;2023-05-23T11:13:10;13.50;;;12.00;;
795;SDS011;381;48.770;9.188;2023-05-23T11:18:20;11.77;;;10.77;;
795;SDS011;381;48.770;9.188;2023-05-23T11:23:23;10.90;;;10.00;;
795;SDS011;381;48.770;9.188;2023-05-23T11:28:54;11.50;;;10.60;;
795;SDS011;381;48.770;9.188;2023-05-23T11:33:57;9.90;;;9.00;;
795;SDS011;381;48.770;9.188;2023-05-23T11:39:01;11.33;;;10.43;;
795;SDS011;381;48.770;9.188;2023-05-23T11:44:09;12.10;;;11.17;;
795;SDS011;381;48.770;9.188;2023-05-23T11:49:16;12.30;;;11.20;;
795;SDS011;381;48.770;9.188;2023-05-23T11:54:21;12.40;;;11.30;;
795;SDS011;381;48.770;9.188;2023-05-23T11:59:24;13.20;;;12.00;;
795;SDS011;381;48.770;9.188;2023-05-23T12:04:28;12.20;;;11.17;;
795;SDS011;381;48.770;9.188;2023-05-23T12:09:31;11.10;;;10.20;;
795;SDS011;381;48.770;9.188;2023-05-23T12:14:33;11.20;;;10.20;;
795;SDS011;381;48.770;9.188;2023-05-23T12:19:36;14.33;;;11.10;;
795;SDS011;381;48.770;9.188;2023-05-23T12:24:43;11.27;;;10.37;;
795;SDS011;381;48.770;9.188;2023-05-23T12:29:50;9.67;;;8.87;;
795;SDS011;381;48.770;9.188;2023-05-23T12:34:54;10.80;;;9.97;;
795;SDS011;381;48.770;9.188;2023-05-23T12:39:56;9.87;;;9.07;;
795;SDS011;381;48.770;9.188;2023-05-23T12:44:58;9.00;;;8.30;;
795;SDS011;381;48.770;9.188;2023-05-23T12:50:02;9.90;;;9.00;;
795;SDS011;381;48.770;9.188;2023-05-23T12:55:05;9.03;;;8.33;;
795;SDS011;381;48.770;9.188;2023-05-23T13:00:11;9.07;;;8.37;;
795;SDS011;381;48.770;9.188;2023-05-23T13:05:16;9.00;;;8.10;;
795;SDS011;381;48.770;9.188;2023-05-23T13:10:18;8.70;;;8.10;;
795;SDS011;381;48.770;9.188;2023-05-23T13:15:20;9.10;;;8.20;;
795;SDS011;381;48.770;9.188;2023-05-23T13:20:24;8.43;;;7.63;;
795;SDS011;381;48.770;9.188;2023-05-23T13:25:29;8.00;;;7.50;;
795;SDS011;381;48.770;9.188;2023-05-23T13:30:33;7.40;;;6.17;;
795;SDS011;381;48.770;9.188;2023-05-23T13:35:39;7.80;;;7.20;;
795;SDS011;381;48.770;9.188;2023-05-23T13:40:41;7.67;;;7.07;;
795;SDS011;381;48.770;9.188;2023-05-23T13:45:43;7.50;;;6.90;;
795;SDS011;381;48.770;9.188;2023-05-23T13:50:49;6.87;;;6.27;;
795;SDS011;381;48.770;9.188;2023-05-23T13:55:53;6.67;;;5.90;;
795;SDS011;381;48.770;9.188;2023-05-23T14:00:55;7.23;;;6.33;;
795;SDS011;381;48.770;9.188;2023-05-23T14:05:59;6.23;;;5.80;;
795;SDS011;381;48.770;9.188;2023-05-23T14:11:01;5.40;;;5.10;;
795;SDS011;381;48.770;9.188;2023-05-23T14:16:03;6.50;;;5.60;;
795;SDS011;381;48.770;9.188;2023-05-23T14:21:07;5.57;;;5.07;;
795;SDS011;381;48.770;9.188;2023-05-23T14:26:09;6.77;;;6.27;;
795;SDS011;381;48.770;9.188;2023-05-23T14:31:11;6.33;;;5.83;;
795;SDS011;381;48.770;9.188;2023-05-23T14:36:14;6.30;;;5.80;;
795;SDS011;381;48.770;9.188;2023-05-23T14:41:20;8.10;;;6.57;;
795;SDS011;381;48.770;9.188;2023-05-23T14:46:22;6.10;;;5.70;;
795;SDS011;381;48.770;9.188;2023-05-23T14:51:26;6.60;;;6.10;;
795;SDS011;381;48.770;9.188;2023-05-23T14:56:28;6.50;;;6.00;;
795;SDS011;381;48.770;9.188;2023-05-23T15:01:30;6.20;;;5.80;;
795;SDS011;381;48.770;9.188;2023-05-23T15:06:33;6.63;;;6.13;;
795;SDS011;381;48.770;9.188;2023-05-23T15:11:36;6.27;;;5.87;;
795;SDS011;381;48.770;9.188;2023-05-23T15:16:39;5.60;;;5.30;;
795;SDS011;381;48.770;9.188;2023-05-23T15:21:44;6.20;;;5.80;;
795;SDS011;381;48.770;9.188;2023-05-23T15:26:49;5.33;;;5.03;;
795;SDS011;381;48.770;9.188;2023-05-23T15:31:51;6.30;;;5.87;;
795;SDS011;381;48.770;9.188;2023-05-23T15:36:55;4.80;;;4.40;;
795;SDS011;381;48.770;9.188;2023-05-23T15:41:57;5.43;;;5.07;;
795;SDS011;381;48.770;9.188;2023-05-23T15:46:59;6.77;;;6.17;;
795;SDS011;381;48.770;9.188;2023-05-23T15:52:03;6.77;;;6.13;;
795;SDS011;381;48.770;9.188;2023-05-23T15:57:05;6.80;;;6.30;;
795;SDS011;381;48.770;9.188;2023-05-23T16:02:07;6.43;;;6.03;;
795;SDS011;381;48.770;9.188;2023-05-23T16:07:11;6.93;;;6.43;;
795;SDS011;381;48.770;9.188;2023-05-23T16:12:13;7.03;;;6.53;;
795;SDS011;381;48.770;9.188;2023-05-23T16:17:15;7.33;;;6.83;;
795;SDS011;381;48.770;9.188;2023-05-23T16:22:19;8.20;;;7.60;;
795;SDS011;381;48.770;9.188;2023-05-23T16:27:21;10.00;;;9.10;;
795;SDS011;381;48.770;9.188;2023-05-23T16:32:24;9.73;;;8.83;;
795;SDS011;381;48.770;9.188;2023-05-23T16:37:27;9.00;;;8.20;;
795;SDS011;381;48.770;9.188;2023-05-23T16:42:29;8.70;;;7.93;;
795;SDS011;381;48.770;9.188;2023-05-23T16:47:31;8.70;;;8.00;;
795;SDS011;381;48.770;9.188;2023-05-23T16:52:35;10.00;;;9.20;;
795;SDS011;381;48.770;9.188;2023-05-23T16:57:39;10.60;;;9.57;;
795;SDS011;381;48.770;9.188;2023-05-23T17:02:41;12.37;;;11.27;;
795;SDS011;381;48.770;9.188;2023-05-23T17:07:45;11.33;;;10.00;;
795;SDS011;381;48.770;9.188;2023-05-23T17:12:47;9.80;;;9.00;;
795;SDS011;381;48.770;9.188;2023-05-23T17:17:49;9.37;;;8.60;;
795;SDS011;381;48.770;9.188;2023-05-23T17:22:55;9.63;;;8.83;;
795;SDS011;381;48.770;9.188;2023-05-23T17:27:57;9.23;;;8.53;;
795;SDS011;381;48.770;9.188;2023-05-23T17:32:59;9.43;;;8.50;;
795;SDS011;381;48.770;9.188;2023-05-23T17:38:03;9.97;;;9.07;;
795;SDS011;381;48.770;9.188;2023-05-23T17:43:05;7.37;;;6.87;;
795;SDS011;381;48.770;9.188;2023-05-23T17:48:07;8.43;;;7.23;;
795;SDS011;381;48.770;9.188;2023-05-23T17:53:10;6.97;;;6.47;;
795;SDS011;381;48.770;9.188;2023-05-23T17:58:13;6.00;;;5.60;;
795;SDS011;381;48.770;9.188;2023-05-23T18:03:17;5.57;;;5.13;;
795;SDS011;381;48.770;9.188;2023-05-23T18:08:21;5.80;;;5.40;;
795;SDS011;381;48.770;9.188;2023-05-23T18:13:24;9.67;;;8.87;;
795;SDS011;381;48.770;9.188;2023-05-23T18:18:26;6.80;;;6.30;;
795;SDS011;381;48.770;9.188;2023-05-23T18:23:29;6.33;;;5.90;;
795;SDS011;381;48.770;9.188;2023-05-23T18:28:31;7.47;;;6.70;;
795;SDS011;381;48.770;9.188;2023-05-23T18:33:33;7.80;;;7.20;;
795;SDS011;381;48.770;9.188;2023-05-23T18:38:37;8.10;;;7.33;;
795;SDS011;381;48.770;9.188;2023-05-23T18:43:40;7.50;;;6.83;;
795;SDS011;381;48.770;9.188;2023-05-23T18:48:42;7.20;;;6.70;;
795;SDS011;381;48.770;9.188;2023-05-23T18:53:47;7.00;;;6.53;;
795;SDS011;381;48.770;9.188;2023-05-23T18:58:53;6.13;;;5.67;;
795;SDS011;381;48.770;9.188;2023-05-23T19:03:55;5.03;;;4.73;;
795;SDS011;381;48.770;9.188;2023-05-23T19:08:58;4.30;;;3.97;;
795;SDS011;381;48.770;9.188;2023-05-23T19:14:01;5.07;;;4.77;;
795;SDS011;381;48.770;9.188;2023-05-23T19:19:03;3.87;;;3.67;;
795;SDS011;381;48.770;9.188;2023-05-23T19:24:06;5.13;;;4.40;;
795;SDS011;381;48.770;9.188;2023-05-23T19:29:09;4.00;;;3.80;;
795;SDS011;381;48.770;9.188;2023-05-23T19:34:11;5.00;;;4.67;;
795;SDS011;381;48.770;9.188;2023-05-23T19:39:14;4.63;;;3.93;;
795;SDS011;381;48.770;9.188;2023-05-23T19:44:16;5.30;;;4.90;;
795;SDS011;381;48.770;9.188;2023-05-23T19:49:19;5.47;;;5.07;;
795;SDS011;381;48.770;9.188;2023-05-23T19:54:22;5.00;;;4.70;;
795;SDS011;381;48.770;9.188;2023-05-23T19:59:24;4.70;;;4.30;;
795;SDS011;381;48.770;9.188;2023-05-23T20:04:26;4.70;;;4.40;;
795;SDS011;381;48.770;9.188;2023-05-23T20:09:30;4.90;;;4.60;;
795;SDS011;381;48.770;9.188;2023-05-23T20:14:32;5.57;;;5.17;;
795;SDS011;381;48.770;9.188;2023-05-23T20:19:34;4.70;;;4.30;;
795;SDS011;381;48.770;9.188;2023-05-23T20:24:37;5.80;;;5.30;;
795;SDS011;381;48.770;9.188;2023-05-23T20:29:39;4.63;;;4.33;;
795;SDS011;381;48.770;9.188;2023-05-23T20:34:42;5.90;;;5.50;;
795;SDS011;381;48.770;9.188;2023-05-23T20:39:45;5.23;;;4.83;;
795;SDS011;381;48.770;9.188;2023-05-23T20:44:50;5.10;;;4.80;;
795;SDS011;381;48.770;9.188;2023-05-23T20:49:52;5.53;;;5.13;;
795;SDS011;381;48.770;9.188;2023-05-23T20:54:56;4.70;;;4.40;;
795;SDS011;381;48.770;9.188;2023-05-23T21:00:00;4.93;;;4.50;;
795;SDS011;381;48.770;9.188;2023-05-23T21:05:06;4.93;;;4.60;;
795;SDS011;381;48.770;9.188;2023-05-23T21:10:11;5.37;;;4.90;;
795;SDS011;381;48.770;9.188;2023-05-23T21:15:13;5.27;;;4.87;;
795;SDS011;381;48.770;9.188;2023-05-23T21:20:15;4.70;;;4.40;;
795;SDS011;381;48.770;9.188;2023-05-23T21:25:20;4.83;;;4.47;;
795;SDS011;381;48.770;9.188;2023-05-23T21:30:22;5.00;;;4.50;;
795;SDS011;381;48.770;9.188;2023-05-23T21:35:24;4.40;;;4.10;;
795;SDS011;381;48.770;9.188;2023-05-23T21:40:28;4.80;;;4.50;;
795;SDS011;381;48.770;9.188;2023-05-23T21:45:30;5.00;;;4.60;;
795;SDS011;381;48.770;9.188;2023-05-23T21:50:32;5.10;;;4.70;;
795;SDS011;381;48.770;9.188;2023-05-23T21:55:35;5.10;;;4.70;;
795;SDS011;381;48.770;9.188;2023-05-23T22:00:37;4.40;;;4.10;;
795;SDS011;381;48.770;9.188;2023-05-23T22:05:39;5.23;;;4.83;;
795;SDS011;381;48.770;9.188;2023-05-23T22:10:43;4.80;;;4.50;;
795;SDS011;381;48.770;9.188;2023-05-23T22:15:47;4.63;;;4.33;;
795;SDS011;381;48.770;9.188;2023-05-23T22:20:49;4.67;;;4.30;;
795;SDS011;381;48.770;9.188;2023-05-23T22:25:53;5.00;;;4.70;;
795;SDS011;381;48.770;9.188;2023-05-23T22:30:55;4.97;;;4.53;;
795;SDS011;381;48.770;9.188;2023-05-23T22:35:57;5.73;;;5.07;;
795;SDS011;381;48.770;9.188;2023-05-23T22:41:01;4.50;;;4.10;;
795;SDS011;381;48.770;9.188;2023-05-23T22:46:03;5.10;;;4.70;;
795;SDS011;381;48.770;9.188;2023-05-23T22:51:06;5.13;;;4.83;;
795;SDS011;381;48.770;9.188;2023-05-23T22:56:13;4.70;;;4.40;;
795;SDS011;381;48.770;9.188;2023-05-23T23:01:15;5.33;;;4.90;;
795;SDS011;381;48.770;9.188;2023-05-23T23:06:17;5.23;;;4.80;;
795;SDS011;381;48.770;9.188;2023-05-23T23:11:21;5.90;;;5.40;;
795;SDS011;381;48.770;9.188;2023-05-23T23:16:23;5.13;;;4.63;;
795;SDS011;381;48.770;9.188;2023-05-23T23:21:26;5.17;;;4.50;;
795;SDS011;381;48.770;9.188;2023-05-23T23:26:29;9.00;;;5.47;;
795;SDS011;381;48.770;9.188;2023-05-23T23:31:31;7.13;;;4.77;;
795;SDS011;381;48.770;9.188;2023-05-23T23:36:33;5.27;;;4.87;;
795;SDS011;381;48.770;9.188;2023-05-23T23:41:40;5.27;;;4.77;;
795;SDS011;381;48.770;9.188;2023-05-23T23:46:42;4.97;;;4.50;;
795;SDS011;381;48.770;9.188;2023-05-23T23:51:44;5.27;;;4.77;;
795;SDS011;381;48.770;9.188;2023-05-23T23:56:47;5.77;;;5.37;;
